Terminal Aerodrome Forecast
Issued by NWS Atlanta, GA

Current Version | Previous Version | Text Only | Print | Product List | Glossary On
Versions: 1 2 3 4 5 6 7 8 9 10 11 12 13 14 15 16 17 18 19
066
FTUS42 KFFC 052321
TAFMCN
TAF
KMCN 052321Z 0600/0624 04004KT P6SM FEW250
     FM061500 07006KT P6SM SCT150 BKN250
     FM062100 03005KT P6SM SCT050 BKN100=

USA.gov is the U.S. government's official web portal to all federal, state and local government web resources and services.